Have a Safe July 4th! 

Flight Track Log - Related Links

Times and Time Zones

All times are in EDT time to prevent confusion due to time zone crossing. See the N1910A flight status page for this flight to view local times or setup timezone preferences in your user account.

Time Position Orientation Groundspeed Altitude Reporting Facility
EDT Latitude Longitude Course Direction KTS MPH feet Rate Location/Type
Sat 02:41:34 PM 32.7500 -117.2333 283° West 208 239 1,800  Level Southern California TRACON
Sat 02:42:28 PM 32.7667 -117.3167 283° West 248 285 4,500 2,813 Climbing Southern California TRACON
Sat 02:43:42 PM 32.6953 -117.3444 198° South 257 296 7,800 2,206 Climbing Los Angeles Center
Sat 02:44:44 PM 32.6567 -117.2833 127° Southeast 247 284 9,500 1,887 Climbing Los Angeles Center
Sat 02:45:46 PM 32.6422 -117.1983 101° East 258 297 11,700 2,274 Climbing Los Angeles Center
Sat 02:46:48 PM 32.6256 -117.0828 100° East 289 333 14,200 2,274 Climbing Los Angeles Center
Sat 02:47:50 PM 32.6103 -116.9825 100° East 304 350 16,400 1,984 Climbing Los Angeles Center
Sat 02:48:52 PM 32.6200 -116.8783 84° East 317 365 18,300 1,694 Climbing Los Angeles Center
Sat 02:49:54 PM 32.6661 -116.7869 59° Northeast 332 382 19,900 1,452 Climbing Los Angeles Center
Sat 02:50:56 PM 32.7556 -116.7394 24° Northeast 356 410 21,300 1,355 Climbing Los Angeles Center
Sat 02:51:58 PM 32.8503 -116.6844 26° Northeast 372 428 22,700 1,403 Climbing Los Angeles Center
Sat 02:53:00 PM 32.9481 -116.6214 28° Northeast 389 448 24,200 1,403 Climbing Los Angeles Center
Sat 02:54:02 PM 33.0483 -116.5542 29° Northeast 402 463 25,600 1,403 Climbing Los Angeles Center
Sat 02:55:04 PM 33.1686 -116.4725 30° Northeast 407 468 27,100 1,161 Climbing Los Angeles Center
Sat 02:56:06 PM 33.2714 -116.4025 30° Northeast 417 480 28,000 919 Climbing Los Angeles Center
Sat 02:57:08 PM 33.3764 -116.3319 29° Northeast 426 490 29,000 484 Climbing Los Angeles Center
Sat 02:58:10 PM 33.4794 -116.2517 33° Northeast 438 504 29,000 290 Level Los Angeles Center
Sat 02:59:12 PM 33.5656 -116.1514 44° Northeast 433 498 29,600 960 Climbing Los Angeles Center
Sat 03:00:15 PM 33.6531 -116.0547 43° Northeast 432 497 31,000 1,536 Climbing Los Angeles Center
Sat 03:01:17 PM 33.7553 -115.9400 43° Northeast 423 487 32,800 968 Climbing Los Angeles Center
Sat 03:02:19 PM 33.8356 -115.8378 47° Northeast 420 483 33,000 97 Climbing Los Angeles Center
Sat 03:03:21 PM 33.9144 -115.7219 51° Northeast 431 496 33,000  Level Los Angeles Center
Sat 03:04:23 PM 33.9933 -115.6033 51° Northeast 445 512 33,000 290 Level Los Angeles Center
Sat 03:05:25 PM 34.0697 -115.4917 50° Northeast 443 510 33,600 1,258 Climbing Los Angeles Center
Sat 03:06:27 PM 34.1425 -115.3875 50° Northeast 422 486 35,600 1,645 Climbing Los Angeles Center
Sat 03:07:29 PM 34.2219 -115.2714 50° Northeast 383 441 37,000 677 Climbing Los Angeles Center
Sat 03:08:31 PM 34.2914 -115.1708 50° Northeast 383 441 37,000  Level Los Angeles Center
Sat 03:09:33 PM 34.3650 -115.0636 50° Northeast 406 467 37,000 339 Level Los Angeles Center
Sat 03:10:35 PM 34.4425 -114.9525 50° Northeast 425 489 37,700 919 Climbing Los Angeles Center
Sat 03:11:37 PM 34.5147 -114.8436 51° Northeast 421 484 38,900 629 Climbing Los Angeles Center
Sat 03:12:39 PM 34.5878 -114.7378 50° Northeast 413 475 39,000 48 Climbing Los Angeles Center
Sat 03:13:41 PM 34.6708 -114.6131 51° Northeast 414 476 39,000  Level Los Angeles Center
Sat 03:14:43 PM 34.7481 -114.5047 49° Northeast 421 484 39,000  Level Los Angeles Center
Sat 03:15:45 PM 34.8506 -114.4403 27° Northeast 419 482 39,000  Level Los Angeles Center
Sat 03:16:47 PM 34.9619 -114.3969 18° North 418 481 39,000  Level Los Angeles Center
Sat 03:17:49 PM 35.0964 -114.3450 18° North 420 483 39,000  Level Los Angeles Center
Sat 03:18:50 PM 35.2075 -114.3011 18° North 420 483 39,000  Level Los Angeles Center
Sat 03:19:52 PM 35.3178 -114.2592 17° North 419 482 39,000  Level Los Angeles Center
Sat 03:20:55 PM 35.4278 -114.2153 18° North 419 482 39,000  Level Los Angeles Center
Sat 03:21:56 PM 35.5311 -114.1758 17° North 416 479 39,000  Level Los Angeles Center
Sat 03:22:58 PM 35.6406 -114.1319 18° North 411 473 39,000  Level Los Angeles Center
Sat 03:24:00 PM 35.7756 -114.0775 18° North 412 474 39,000  Level Los Angeles Center
Sat 03:25:02 PM 35.8842 -114.0339 18° North 412 474 39,000  Level Los Angeles Center
Sat 03:26:04 PM 35.9897 -113.9908 18° North 410 472 39,000  Level Los Angeles Center
Sat 03:27:06 PM 36.0975 -113.9489 17° North 408 470 39,000  Level Los Angeles Center
Sat 03:28:08 PM 36.2058 -113.9042 18° North 408 470 39,000  Level Los Angeles Center
Sat 03:29:10 PM 36.3142 -113.8611 18° North 408 470 39,000  Level Los Angeles Center
Sat 03:30:12 PM 36.4431 -113.8083 18° North 408 470 39,000  Level Los Angeles Center
Sat 03:31:14 PM 36.5542 -113.7644 18° North 408 470 39,000  Level Los Angeles Center
Sat 03:32:16 PM 36.6617 -113.7200 18° North 408 470 39,000  Level Los Angeles Center
Sat 03:33:18 PM 36.7689 -113.6742 19° North 408 470 39,000  Level Los Angeles Center
Sat 03:34:20 PM 36.8783 -113.6297 18° North 408 470 39,000  Level Los Angeles Center
Sat 03:35:22 PM 36.9883 -113.5858 18° North 411 473 39,000  Level Los Angeles Center
Sat 03:36:23 PM 37.0975 -113.5408 18° North 411 473 39,000  Level Los Angeles Center
Sat 03:37:25 PM 37.2294 -113.4872 18° North 411 473 39,000  Level Los Angeles Center
Sat 03:38:27 PM 37.3403 -113.4425 18° North 413 475 39,000  Level Los Angeles Center
Sat 03:39:29 PM 37.4506 -113.3956 19° North 414 476 39,000  Level Los Angeles Center
Sat 03:40:31 PM 37.5631 -113.3511 17° North 416 479 39,000  Level Los Angeles Center
Sat 03:41:33 PM 37.6750 -113.3047 18° North 418 481 39,000  Level Los Angeles Center
Sat 03:42:35 PM 37.7867 -113.2589 18° North 418 481 39,000  Level Los Angeles Center
Sat 03:43:37 PM 37.8981 -113.2111 19° North 418 481 39,000  Level Los Angeles Center
Sat 03:44:39 PM 38.0086 -113.1644 18° North 418 481 39,000  Level Los Angeles Center
Sat 03:45:41 PM 38.1422 -113.1081 18° North 418 481 39,000  Level Los Angeles Center
Sat 03:47:03 PM 38.2764 -113.0522 18° North 419 482 39,000  Level Salt Lake Center
Sat 03:48:05 PM 38.4086 -112.9897 20° North 420 483 39,000  Level Salt Lake Center
Sat 03:49:07 PM 38.5172 -112.9319 23° Northeast 420 483 39,000  Level Salt Lake Center
Sat 03:50:09 PM 38.6269 -112.8717 23° Northeast 426 490 39,000  Level Salt Lake Center
Sat 03:51:11 PM 38.7356 -112.8114 23° Northeast 426 490 39,000  Level Salt Lake Center
Sat 03:52:13 PM 38.8442 -112.7511 23° Northeast 425 489 39,000  Level Salt Lake Center
Sat 03:53:15 PM 38.9525 -112.6919 23° Northeast 425 489 39,000  Level Salt Lake Center
Sat 03:54:17 PM 39.0606 -112.6311 24° Northeast 424 488 39,000  Level Salt Lake Center
Sat 03:55:18 PM 39.1894 -112.5606 23° Northeast 422 486 39,000  Level Salt Lake Center
Sat 03:56:20 PM 39.3006 -112.4972 24° Northeast 421 484 39,000  Level Salt Lake Center
Sat 03:57:22 PM 39.4067 -112.4392 23° Northeast 417 480 39,000  Level Salt Lake Center
Sat 03:58:24 PM 39.5111 -112.3789 24° Northeast 414 476 39,000  Level Salt Lake Center
Sat 03:59:26 PM 39.6142 -112.3208 23° Northeast 407 468 39,000  Level Salt Lake Center
Sat 04:00:28 PM 39.7161 -112.2653 23° Northeast 401 461 39,000  Level Salt Lake Center
Sat 04:01:30 PM 39.8169 -112.2072 24° Northeast 399 459 39,000  Level Salt Lake Center
Sat 04:02:31 PM 39.9189 -112.1506 23° Northeast 398 458 39,000  Level Salt Lake Center
Sat 04:03:33 PM 40.0375 -112.0828 24° Northeast 390 449 39,000  Level Salt Lake Center
Sat 04:04:35 PM 40.1353 -112.0225 25° Northeast 389 448 39,000  Level Salt Lake Center
Sat 04:05:37 PM 40.2342 -111.9686 23° Northeast 389 448 39,000  Level Salt Lake Center
Sat 04:06:38 PM 40.3206 -111.8842 37° Northeast 387 445 39,000  Level Salt Lake Center
Sat 04:07:40 PM 40.3919 -111.7808 48° Northeast 385 443 39,000  Level Salt Lake Center
Sat 04:08:42 PM 40.4683 -111.6822 44° Northeast 388 447 39,000  Level Salt Lake Center
Sat 04:09:43 PM 40.5564 -111.5617 46° Northeast 386 444 39,000  Level Salt Lake Center
Sat 04:10:45 PM 40.6278 -111.4631 46° Northeast 375 432 39,000  Level Salt Lake Center
Sat 04:11:47 PM 40.7014 -111.3625 46° Northeast 380 437 39,000  Level Salt Lake Center
Sat 04:12:48 PM 40.7933 -111.2981 28° Northeast 385 443 39,000  Level Salt Lake Center
Sat 04:13:50 PM 40.8994 -111.2775 North 391 450 39,000  Level Salt Lake Center
Sat 04:14:52 PM 41.0031 -111.2581 North 383 441 39,000  Level Salt Lake Center
Sat 04:15:53 PM 41.1264 -111.2342 North 376 433 39,000  Level Salt Lake Center
Sat 04:16:55 PM 41.2308 -111.2144 North 376 433 39,000  Level Salt Lake Center
Sat 04:17:57 PM 41.3358 -111.1953 North 378 435 39,000  Level Salt Lake Center
Sat 04:18:58 PM 41.4408 -111.1744 North 380 437 39,000  Level Salt Lake Center
Sat 04:20:00 PM 41.5461 -111.1542 North 380 437 39,000  Level Salt Lake Center
Sat 04:21:02 PM 41.6519 -111.1333 North 382 440 39,000 -537 Level Salt Lake Center
Sat 04:22:03 PM 41.7806 -111.1086 North 387 445 37,900 -1,268 Descending Salt Lake Center
Sat 04:23:05 PM 41.8939 -111.0861 North 411 473 36,400 -1,463 Descending Salt Lake Center
Sat 04:24:06 PM 42.0086 -111.0625 North 416 479 34,900 -1,463 Descending Salt Lake Center
Sat 04:25:08 PM 42.1242 -111.0403 North 416 479 33,400 -1,500 Descending Salt Lake Center
Sat 04:26:10 PM 42.2394 -111.0183 North 418 481 31,800 -1,707 Descending Salt Lake Center
Sat 04:27:11 PM 42.3556 -110.9939 North 420 483 29,900 -1,854 Descending Salt Lake Center
Sat 04:28:13 PM 42.4719 -110.9694 North 421 484 28,000 -2,081 Descending Salt Lake Center
Sat 04:29:15 PM 42.6064 -110.9436 North 411 473 25,600 -2,146 Descending Salt Lake Center
Sat 04:30:16 PM 42.7122 -110.9231 North 403 464 23,600 -1,561 Descending Salt Lake Center
Sat 04:31:18 PM 42.8067 -110.9019 North 385 443 22,400 -1,707 Descending Salt Lake Center
Sat 04:32:19 PM 42.9281 -110.8772 North 372 428 20,100 -1,171 Descending Salt Lake Center
Sat 04:33:21 PM 43.0103 -110.8603 North 360 414 20,000 -629 Descending Salt Lake Center
Sat 04:34:23 PM 43.1250 -110.8372 North 350 403 18,800 -1,805 Descending Salt Lake Center
Sat 04:35:24 PM 43.2281 -110.8164 North 370 426 16,300 -2,341 Descending Salt Lake Center
Sat 04:36:26 PM 43.3297 -110.7953 North 371 427 14,000 -1,463 Descending Salt Lake Center
Sat 04:37:27 PM 43.4175 -110.7764 North 324 373 13,300 -1,805 Descending Salt Lake Center
Sat 04:38:29 PM 43.5106 -110.7689 North 329 379 10,300 -2,274 Descending Salt Lake Center
Sat 04:39:31 PM 43.5964 -110.7831 353° North 312 359 8,600 -1,220 Descending Salt Lake Center
Sat 04:40:32 PM 43.6608 -110.7442 24° Northeast 274 315 7,800 -976 Descending Salt Lake Center
Sat 04:41:34 PM 43.6264 -110.7283 162° South 199 229 6,600 -726 Descending Salt Lake Center
Sat 04:42:36 PM 43.5917 -110.7450 199° South 180 207 6,300 -290 Descending Salt Lake Center

Login

Don't have an account? Register now (free) for customized features, flight alerts, and more!